Time;durP1;ratioP1;P1;durP2;ratioP2;P2;SDS_P1;SDS_P2;PMS_P1;PMS_P2;Temp;Humidity;BMP_temperature;BMP_pressure;BME280_temperature;BME280_humidity;BME280_pressure;Samples;Min_cycle;Max_cycle;Signal;HPM_P1;HPM_P2
2021/09/30 00:02:57;;;;;;;3.60;2.00;;;11.50;77.50;;;;;;6305633;28;20461;-81
2021/09/30 00:05:59;;;;;;;3.58;1.83;;;11.50;77.50;;;;;;6304653;28;20773;-81
2021/09/30 00:09:01;;;;;;;4.00;1.50;;;11.50;78.40;;;;;;6302015;28;20505;-82
2021/09/30 00:12:10;;;;;;;5.22;1.30;;;11.40;78.30;;;;;;6306331;28;20516;-81
2021/09/30 00:15:15;;;;;;;4.15;1.30;;;11.40;78.50;;;;;;6304381;28;20781;-81
2021/09/30 00:32:24;;;;;;;2.30;1.40;;;11.30;78.50;;;;;;6304604;28;20403;-81
2021/09/30 00:35:23;;;;;;;2.23;1.27;;;11.20;79.00;;;;;;6302659;28;20772;-80
2021/09/30 00:41:49;;;;;;;2.75;1.10;;;11.10;78.80;;;;;;6301385;28;20796;-80
2021/09/30 00:48:30;;;;;;;3.15;2.10;;;11.10;78.80;;;;;;6303337;28;20416;-81
2021/09/30 00:51:40;;;;;;;3.00;1.10;;;11.10;78.80;;;;;;6302720;28;20419;-81
2021/09/30 01:52:51;;;;;;;4.47;1.37;;;10.70;79.30;;;;;;6300185;28;20411;-81
2021/09/30 02:19:33;;;;;;;3.85;1.55;;;10.50;80.60;;;;;;6299079;28;20419;-80
2021/09/30 02:23:05;;;;;;;4.87;1.77;;;10.40;80.40;;;;;;6299909;28;20805;-81
2021/09/30 02:26:32;;;;;;;3.55;1.38;;;10.40;80.60;;;;;;6299302;28;20414;-81
2021/09/30 02:29:46;;;;;;;3.73;2.10;;;10.30;80.80;;;;;;6299744;28;20486;-80
2021/09/30 03:00:08;;;;;;;3.85;1.65;;;9.60;81.80;;;;;;6304127;28;20475;-81
2021/09/30 03:03:11;;;;;;;1.87;1.33;;;9.60;82.10;;;;;;6302495;28;20431;-81
2021/09/30 03:06:15;;;;;;;2.92;1.55;;;9.60;82.00;;;;;;6304479;28;20415;-81
2021/09/30 03:09:20;;;;;;;3.60;1.63;;;9.60;81.90;;;;;;6304810;28;20407;-81
2021/09/30 03:12:28;;;;;;;3.10;1.40;;;9.60;82.30;;;;;;6305052;28;20442;-81
2021/09/30 03:15:38;;;;;;;3.35;1.40;;;9.60;81.80;;;;;;6303712;28;20415;-80
2021/09/30 03:18:57;;;;;;;4.03;1.33;;;9.60;82.30;;;;;;6302829;28;20403;-81
2021/09/30 03:22:14;;;;;;;3.20;1.65;;;9.60;82.30;;;;;;6302249;28;20827;-81
2021/09/30 03:25:17;;;;;;;1.98;1.52;;;9.60;82.40;;;;;;6303298;28;20422;-81
2021/09/30 03:28:22;;;;;;;3.38;1.40;;;9.60;82.30;;;;;;6302779;28;20792;-80
2021/09/30 03:31:25;;;;;;;6.43;1.90;;;9.70;81.90;;;;;;6302473;28;20521;-80
2021/09/30 03:34:28;;;;;;;2.63;1.40;;;9.70;82.10;;;;;;6301933;28;20426;-80
2021/09/30 03:37:30;;;;;;;2.15;1.50;;;9.80;82.50;;;;;;6302801;28;20511;-80
2021/09/30 03:40:34;;;;;;;3.35;1.45;;;9.80;81.80;;;;;;6303192;28;20565;-80
2021/09/30 03:43:36;;;;;;;5.32;2.00;;;9.80;81.50;;;;;;6302486;28;20897;-80
2021/09/30 03:46:38;;;;;;;5.40;1.65;;;9.80;81.60;;;;;;6302124;28;20541;-81
2021/09/30 03:49:40;;;;;;;7.35;1.67;;;9.80;81.50;;;;;;6302466;28;20449;-81
2021/09/30 03:52:54;;;;;;;2.83;1.65;;;9.70;81.90;;;;;;6301859;28;20435;-81
2021/09/30 03:56:20;;;;;;;6.47;2.53;;;9.70;81.70;;;;;;6302477;28;20439;-81
2021/09/30 03:59:22;;;;;;;5.30;1.70;;;9.70;81.90;;;;;;6322604;28;20511;-81
2021/09/30 04:02:23;;;;;;;4.88;1.73;;;9.70;82.20;;;;;;6312269;28;20416;-80
2021/09/30 04:05:25;;;;;;;3.90;1.70;;;9.70;82.20;;;;;;6301860;28;20495;-80
2021/09/30 04:08:27;;;;;;;3.53;1.90;;;9.70;82.40;;;;;;6302435;28;20521;-81
2021/09/30 04:11:30;;;;;;;3.42;1.95;;;9.80;82.00;;;;;;6301652;28;20450;-80
2021/09/30 04:14:33;;;;;;;4.28;1.20;;;9.80;81.80;;;;;;6300879;28;20430;-80
2021/09/30 04:17:34;;;;;;;4.90;1.70;;;9.90;82.10;;;;;;6300514;28;20499;-80
2021/09/30 04:20:37;;;;;;;7.20;2.15;;;9.90;81.90;;;;;;6300429;28;20428;-80
2021/09/30 04:23:39;;;;;;;5.53;2.17;;;10.00;81.60;;;;;;6300166;28;20461;-80
2021/09/30 04:26:43;;;;;;;3.58;1.60;;;10.10;81.60;;;;;;6300780;28;20412;-80
2021/09/30 04:29:45;;;;;;;3.33;1.93;;;10.20;81.60;;;;;;6300259;28;20484;-80
2021/09/30 04:32:47;;;;;;;4.47;1.73;;;10.30;81.40;;;;;;6299762;28;20436;-80
2021/09/30 04:35:49;;;;;;;6.03;2.17;;;10.40;81.20;;;;;;6300964;28;20439;-81
2021/09/30 04:38:51;;;;;;;4.47;1.83;;;10.40;80.90;;;;;;6300049;28;20412;-80
2021/09/30 04:41:54;;;;;;;4.23;1.80;;;10.50;81.10;;;;;;6300464;28;20412;-80
2021/09/30 04:44:56;;;;;;;3.50;2.17;;;10.60;81.10;;;;;;6301191;28;20912;-81
2021/09/30 04:47:58;;;;;;;5.40;2.90;;;10.60;80.60;;;;;;6301242;28;20427;-80
2021/09/30 04:51:00;;;;;;;5.28;2.28;;;10.70;81.00;;;;;;6300711;28;20503;-81
2021/09/30 04:54:02;;;;;;;2.90;2.00;;;10.60;81.00;;;;;;6300226;28;20495;-80
2021/09/30 04:57:06;;;;;;;5.03;2.58;;;10.70;80.80;;;;;;6299069;28;20410;-80
2021/09/30 05:00:09;;;;;;;6.10;2.00;;;10.70;80.40;;;;;;6299651;28;20463;-80
2021/09/30 05:03:11;;;;;;;7.13;2.40;;;10.70;80.00;;;;;;6298666;28;20415;-80
2021/09/30 05:06:13;;;;;;;12.00;3.28;;;10.60;79.60;;;;;;6298472;28;20541;-79
2021/09/30 05:09:15;;;;;;;3.90;2.47;;;10.50;80.90;;;;;;6297861;28;20556;-80
2021/09/30 05:12:18;;;;;;;7.15;3.55;;;10.50;81.60;;;;;;6298522;28;20459;-79
2021/09/30 05:15:20;;;;;;;3.10;1.95;;;10.40;80.70;;;;;;6297959;28;20404;-80
2021/09/30 05:18:22;;;;;;;9.68;3.90;;;10.30;81.00;;;;;;6297488;28;20418;-80
2021/09/30 05:21:25;;;;;;;3.50;2.20;;;10.30;81.80;;;;;;6297097;28;20961;-79
2021/09/30 05:24:27;;;;;;;3.83;1.80;;;10.20;81.20;;;;;;6297843;28;20522;-79
2021/09/30 05:27:30;;;;;;;6.85;2.97;;;10.20;80.80;;;;;;6297119;28;20478;-79
2021/09/30 05:30:32;;;;;;;6.00;2.75;;;10.20;81.30;;;;;;6299350;28;20982;-80
2021/09/30 05:33:34;;;;;;;7.33;2.50;;;10.20;83.80;;;;;;6298954;28;21078;-80
2021/09/30 05:36:35;;;;;;;3.75;2.70;;;10.20;83.90;;;;;;6298983;28;20435;-80
2021/09/30 05:39:37;;;;;;;7.78;2.80;;;10.20;82.50;;;;;;6299267;28;20557;-80
2021/09/30 05:42:41;;;;;;;3.20;2.72;;;10.20;81.90;;;;;;6299185;28;21050;-80
2021/09/30 05:45:43;;;;;;;6.53;2.20;;;10.20;82.00;;;;;;6298867;28;20889;-80
2021/09/30 05:48:45;;;;;;;3.70;2.03;;;10.20;82.40;;;;;;6299020;28;20793;-80
2021/09/30 05:51:47;;;;;;;4.50;2.60;;;10.20;82.60;;;;;;6299796;28;20950;-79
2021/09/30 05:54:50;;;;;;;4.67;2.27;;;10.20;82.30;;;;;;6302833;28;20991;-80
2021/09/30 05:57:53;;;;;;;5.53;2.30;;;10.20;82.00;;;;;;6299251;28;20422;-80
2021/09/30 06:01:05;;;;;;;3.05;1.58;;;10.20;81.20;;;;;;6298868;28;20442;-80
2021/09/30 06:10:59;;;;;;;4.03;2.50;;;10.30;81.80;;;;;;6298724;28;20411;-80
2021/09/30 06:14:04;;;;;;;4.80;2.50;;;10.40;82.20;;;;;;6298723;28;20416;-80
2021/09/30 06:17:06;;;;;;;5.35;3.88;;;10.40;81.90;;;;;;6299044;28;20411;-80
2021/09/30 06:20:09;;;;;;;4.18;2.40;;;10.50;81.30;;;;;;6299708;28;20513;-79
2021/09/30 06:23:11;;;;;;;3.72;1.90;;;10.60;81.50;;;;;;6306967;22;20818;-78
2021/09/30 06:26:13;;;;;;;6.17;2.20;;;10.60;81.00;;;;;;6220810;28;20496;-78
2021/09/30 06:29:17;;;;;;;6.35;2.15;;;10.70;81.20;;;;;;6220522;28;20490;-78
2021/09/30 06:32:18;;;;;;;5.13;2.70;;;10.70;80.70;;;;;;6220813;28;20575;-77
2021/09/30 06:35:20;;;;;;;4.65;2.22;;;10.80;80.90;;;;;;6220328;28;20486;-78
2021/09/30 06:38:22;;;;;;;3.83;2.25;;;10.80;80.70;;;;;;6220947;28;20464;-77
2021/09/30 06:41:24;;;;;;;7.38;2.67;;;10.90;81.30;;;;;;6225060;28;20408;-78
2021/09/30 06:44:27;;;;;;;7.97;2.55;;;11.10;80.30;;;;;;6225571;28;20462;-78
2021/09/30 06:47:30;;;;;;;4.45;2.58;;;11.30;80.10;;;;;;6225140;28;20508;-78
2021/09/30 06:50:32;;;;;;;6.60;2.37;;;11.40;79.50;;;;;;6225454;28;20940;-77
2021/09/30 06:53:33;;;;;;;5.43;2.88;;;11.60;78.80;;;;;;6225355;28;20850;-78
2021/09/30 06:56:35;;;;;;;3.40;2.60;;;11.80;78.90;;;;;;6225622;28;20923;-78
2021/09/30 06:59:38;;;;;;;8.40;2.70;;;12.00;77.80;;;;;;6224806;28;20480;-78
2021/09/30 07:02:41;;;;;;;8.00;2.55;;;12.20;77.30;;;;;;6225160;28;20500;-78
2021/09/30 07:05:43;;;;;;;7.93;1.83;;;12.60;76.60;;;;;;6225201;28;20427;-78
2021/09/30 07:08:45;;;;;;;5.80;2.60;;;12.80;75.50;;;;;;6218027;28;20930;-78
2021/09/30 07:11:47;;;;;;;2.97;2.00;;;13.20;74.50;;;;;;6228734;28;20535;-77
2021/09/30 07:14:50;;;;;;;6.57;2.38;;;13.60;72.60;;;;;;6226364;28;20984;-77
2021/09/30 07:17:52;;;;;;;4.28;2.42;;;13.90;71.30;;;;;;6225908;28;20443;-77
2021/09/30 07:20:57;;;;;;;3.40;2.03;;;14.10;70.30;;;;;;6224997;28;20515;-77
2021/09/30 07:23:59;;;;;;;5.30;2.38;;;14.40;69.70;;;;;;6226718;28;20440;-77
2021/09/30 07:27:01;;;;;;;7.00;2.72;;;14.60;68.80;;;;;;6226227;28;20588;-77
2021/09/30 07:30:04;;;;;;;10.32;2.67;;;14.60;69.60;;;;;;6224618;28;20416;-77
2021/09/30 07:33:08;;;;;;;9.18;2.90;;;14.80;69.50;;;;;;6226037;28;20941;-77
2021/09/30 07:36:13;;;;;;;3.28;1.92;;;15.00;68.80;;;;;;6226850;28;20994;-77
2021/09/30 07:39:16;;;;;;;4.10;2.30;;;15.40;67.70;;;;;;6216692;28;20452;-77
2021/09/30 07:42:19;;;;;;;5.68;2.58;;;15.90;66.30;;;;;;6226026;28;20421;-78
2021/09/30 07:45:22;;;;;;;4.23;2.20;;;16.20;64.00;;;;;;6225318;28;20543;-78
2021/09/30 07:48:24;;;;;;;4.90;2.30;;;16.60;62.50;;;;;;6226762;28;20957;-77
2021/09/30 07:51:26;;;;;;;2.85;1.77;;;16.90;61.90;;;;;;6232337;28;20432;-77
2021/09/30 07:54:28;;;;;;;6.30;2.20;;;17.20;61.10;;;;;;6228031;28;20508;-78
2021/09/30 07:57:30;;;;;;;5.38;1.95;;;17.40;59.60;;;;;;6224592;28;20842;-77
2021/09/30 08:00:33;;;;;;;4.57;1.57;;;17.50;59.50;;;;;;6224306;28;20435;-77
2021/09/30 08:03:35;;;;;;;3.57;2.13;;;17.50;60.00;;;;;;6213881;28;20551;-78
2021/09/30 08:06:39;;;;;;;5.97;1.77;;;17.70;59.10;;;;;;6204934;28;20510;-77
2021/09/30 08:09:41;;;;;;;3.83;1.77;;;17.90;57.80;;;;;;6217002;28;20939;-77
2021/09/30 08:12:43;;;;;;;2.97;1.55;;;17.80;57.80;;;;;;6225131;28;20472;-77
2021/09/30 08:15:46;;;;;;;6.80;2.17;;;17.80;58.50;;;;;;6225081;28;20525;-77
2021/09/30 08:18:48;;;;;;;4.90;1.90;;;17.80;58.70;;;;;;6225177;28;21056;-78
2021/09/30 08:21:50;;;;;;;2.92;2.10;;;17.90;59.20;;;;;;6225539;28;20479;-77
2021/09/30 08:24:52;;;;;;;3.17;1.83;;;18.20;57.80;;;;;;6223840;28;20523;-77
2021/09/30 08:27:54;;;;;;;3.15;1.75;;;18.50;57.50;;;;;;6224117;28;20436;-77
2021/09/30 08:30:57;;;;;;;3.60;2.40;;;18.70;56.40;;;;;;6223427;28;20479;-77
2021/09/30 08:34:00;;;;;;;5.03;2.22;;;18.90;56.10;;;;;;6224337;28;20420;-77
2021/09/30 08:37:02;;;;;;;2.45;1.30;;;19.20;55.60;;;;;;6224691;28;20420;-77
2021/09/30 08:40:06;;;;;;;3.33;1.50;;;19.60;53.10;;;;;;6215267;28;20432;-77
2021/09/30 08:43:08;;;;;;;3.78;1.77;;;19.80;52.20;;;;;;6222233;28;20965;-77
2021/09/30 08:46:11;;;;;;;2.63;1.10;;;19.90;52.10;;;;;;6222507;28;20497;-77
2021/09/30 08:49:13;;;;;;;2.92;1.55;;;20.10;49.90;;;;;;6222438;28;20421;-77
2021/09/30 08:52:15;;;;;;;2.95;1.38;;;20.20;48.90;;;;;;6223847;28;20529;-77
2021/09/30 08:55:17;;;;;;;2.70;1.60;;;20.20;49.10;;;;;;6224009;28;20456;-77
2021/09/30 08:58:19;;;;;;;5.45;1.55;;;20.40;47.80;;;;;;6222052;28;20897;-77
2021/09/30 09:01:22;;;;;;;4.88;1.67;;;20.50;48.00;;;;;;6222003;28;20504;-77
2021/09/30 09:04:24;;;;;;;3.33;1.55;;;20.60;47.30;;;;;;6215888;28;20440;-77
2021/09/30 09:07:27;;;;;;;2.50;1.60;;;20.60;48.90;;;;;;6220157;28;20445;-78
2021/09/30 09:10:31;;;;;;;4.68;1.58;;;20.70;48.10;;;;;;6219076;28;20432;-77
2021/09/30 09:13:33;;;;;;;4.18;1.45;;;20.80;48.00;;;;;;6223280;28;20429;-77
2021/09/30 09:16:36;;;;;;;4.72;1.25;;;20.70;47.40;;;;;;6223702;28;20989;-77
2021/09/30 09:19:41;;;;;;;3.95;1.40;;;20.50;47.40;;;;;;6222578;28;20944;-77
2021/09/30 09:22:43;;;;;;;2.90;1.45;;;20.40;48.20;;;;;;6223499;28;20417;-77
2021/09/30 09:25:45;;;;;;;5.35;1.67;;;20.60;47.30;;;;;;6222558;28;20416;-77
2021/09/30 09:29:03;;;;;;;3.20;1.50;;;20.60;47.10;;;;;;6223710;28;20436;-78
2021/09/30 09:32:07;;;;;;;3.10;1.55;;;20.50;47.80;;;;;;6224051;28;20475;-77
2021/09/30 09:35:09;;;;;;;4.95;1.63;;;20.40;48.10;;;;;;6223017;28;20424;-77
2021/09/30 09:38:12;;;;;;;5.68;2.03;;;20.30;47.40;;;;;;6213337;28;20449;-77
2021/09/30 09:41:22;;;;;;;5.20;2.00;;;20.20;47.90;;;;;;6221792;28;20905;-77
2021/09/30 09:44:24;;;;;;;4.28;1.27;;;20.10;49.20;;;;;;6221636;28;20440;-77
2021/09/30 09:47:30;;;;;;;5.35;1.80;;;20.10;49.30;;;;;;6221140;28;20428;-77
2021/09/30 09:50:32;;;;;;;3.37;1.53;;;19.90;50.00;;;;;;6220564;28;20439;-77
2021/09/30 09:53:36;;;;;;;7.40;1.75;;;19.90;49.20;;;;;;6220156;28;20448;-77
2021/09/30 09:56:38;;;;;;;5.85;1.58;;;20.10;48.50;;;;;;6221039;28;20455;-77
2021/09/30 09:59:42;;;;;;;5.03;2.08;;;20.40;49.00;;;;;;6220332;28;20474;-77
2021/09/30 10:02:45;;;;;;;3.78;1.45;;;20.60;46.60;;;;;;6220723;28;20429;-77
2021/09/30 10:05:48;;;;;;;23.27;2.42;;;20.60;46.30;;;;;;6213788;28;20885;-77
2021/09/30 10:08:50;;;;;;;4.32;1.48;;;20.50;47.40;;;;;;6212221;28;20530;-77
2021/09/30 10:11:52;;;;;;;4.15;1.38;;;20.40;46.80;;;;;;6220985;28;20428;-77
2021/09/30 10:14:54;;;;;;;4.07;1.35;;;20.60;47.60;;;;;;6220545;28;20520;-77
2021/09/30 10:17:58;;;;;;;5.32;1.63;;;20.80;45.40;;;;;;6220167;28;20446;-76
2021/09/30 10:21:02;;;;;;;4.25;1.80;;;21.10;44.70;;;;;;6220047;28;20486;-77
2021/09/30 10:24:06;;;;;;;2.05;1.25;;;21.40;43.10;;;;;;6220454;28;20798;-77
2021/09/30 10:27:12;;;;;;;3.63;1.20;;;21.50;42.80;;;;;;6220373;28;20496;-77
2021/09/30 10:30:31;;;;;;;3.75;1.30;;;21.80;43.40;;;;;;6220277;28;20516;-77
2021/09/30 10:33:42;;;;;;;6.05;1.60;;;22.10;43.60;;;;;;6220680;28;20423;-76
2021/09/30 10:36:45;;;;;;;4.43;1.27;;;22.40;41.40;;;;;;6220221;28;20479;-77
2021/09/30 10:40:14;;;;;;;3.30;1.15;;;22.50;37.40;;;;;;6211751;28;20436;-77
2021/09/30 10:43:23;;;;;;;3.38;1.20;;;22.30;39.80;;;;;;6220193;28;20428;-77
2021/09/30 10:46:53;;;;;;;6.00;1.42;;;22.20;40.50;;;;;;6220484;28;20566;-77
2021/09/30 10:50:00;;;;;;;4.65;1.58;;;22.70;38.80;;;;;;6220159;28;20593;-77
2021/09/30 10:53:01;;;;;;;2.33;1.02;;;23.00;37.60;;;;;;6220030;28;20772;-77
2021/09/30 10:56:37;;;;;;;1.85;1.00;;;23.30;36.60;;;;;;6220414;28;20890;-77
2021/09/30 10:59:41;;;;;;;2.95;1.15;;;23.20;35.40;;;;;;6219003;28;20413;-77
2021/09/30 11:03:20;;;;;;;3.22;1.20;;;23.20;34.00;;;;;;6219916;28;20934;-77
2021/09/30 11:06:23;;;;;;;4.90;1.30;;;23.70;33.20;;;;;;6212750;28;20430;-77
2021/09/30 11:09:26;;;;;;;4.95;1.35;;;24.10;35.00;;;;;;6207309;28;20419;-77
2021/09/30 11:12:28;;;;;;;1.92;1.10;;;24.30;34.90;;;;;;6196723;28;20441;-77
2021/09/30 11:16:02;;;;;;;3.05;1.30;;;24.40;35.00;;;;;;6197101;28;20418;-77
2021/09/30 11:19:05;;;;;;;2.58;0.82;;;24.40;34.80;;;;;;6195210;28;20496;-77
2021/09/30 11:22:11;;;;;;;2.88;0.93;;;24.70;33.50;;;;;;6196601;28;20496;-78
2021/09/30 11:25:12;;;;;;;4.75;1.15;;;24.90;34.10;;;;;;6197099;28;20418;-77
2021/09/30 11:28:15;;;;;;;2.17;0.75;;;25.10;33.20;;;;;;6200010;28;20438;-77
2021/09/30 11:31:26;;;;;;;6.88;1.45;;;25.10;33.20;;;;;;6200228;28;20502;-77
2021/09/30 11:34:31;;;;;;;4.43;1.07;;;24.90;32.50;;;;;;6199690;28;20502;-78
2021/09/30 11:37:44;;;;;;;2.97;1.00;;;24.80;34.60;;;;;;6208532;28;20505;-77
2021/09/30 11:40:48;;;;;;;3.20;0.90;;;24.80;33.00;;;;;;6223398;28;20480;-77
2021/09/30 11:43:50;;;;;;;5.45;1.38;;;24.70;33.20;;;;;;6226059;28;20437;-77
2021/09/30 11:46:53;;;;;;;2.40;1.00;;;24.80;32.40;;;;;;6223807;28;20507;-77
2021/09/30 11:49:55;;;;;;;1.65;0.90;;;24.60;30.70;;;;;;6223458;28;20586;-77
2021/09/30 11:53:09;;;;;;;1.50;0.80;;;24.30;31.00;;;;;;6223694;28;20429;-77
2021/09/30 11:56:11;;;;;;;2.57;1.40;;;24.00;33.20;;;;;;6223590;28;20973;-76
2021/09/30 11:59:16;;;;;;;17.55;2.33;;;24.20;33.40;;;;;;6223094;28;20420;-77
2021/09/30 12:02:18;;;;;;;2.42;1.00;;;24.60;35.00;;;;;;6224952;28;20786;-77
2021/09/30 12:05:23;;;;;;;2.90;1.15;;;25.00;33.10;;;;;;6224732;28;20490;-77
2021/09/30 12:08:27;;;;;;;5.17;1.40;;;25.40;33.20;;;;;;6211962;28;20447;-77
2021/09/30 12:11:34;;;;;;;5.40;1.15;;;25.50;32.40;;;;;;6222939;28;20419;-77
2021/09/30 12:14:38;;;;;;;3.95;0.93;;;25.70;32.50;;;;;;6225475;28;20421;-76
2021/09/30 12:17:42;;;;;;;7.78;1.08;;;25.70;32.10;;;;;;6222912;28;20428;-77
2021/09/30 12:20:49;;;;;;;5.18;1.50;;;25.50;31.90;;;;;;6222223;28;20782;-77
2021/09/30 12:23:56;;;;;;;4.25;1.50;;;25.50;32.30;;;;;;6222575;28;20437;-77
2021/09/30 12:26:58;;;;;;;11.60;2.58;;;25.50;30.70;;;;;;6249680;22;20423;-81
2021/09/30 12:30:05;;;;;;;3.80;0.63;;;25.50;31.60;;;;;;6226754;28;20984;-82
2021/09/30 12:33:08;;;;;;;7.75;1.90;;;25.50;30.10;;;;;;6228073;28;20405;-82
2021/09/30 12:36:10;;;;;;;12.85;1.45;;;25.40;31.10;;;;;;6227568;28;20440;-82
2021/09/30 12:39:13;;;;;;;11.45;2.03;;;25.40;31.40;;;;;;6243982;28;20498;-82
2021/09/30 12:42:17;;;;;;;2.95;0.88;;;25.50;30.50;;;;;;6251743;28;20410;-83
2021/09/30 12:45:19;;;;;;;3.97;1.33;;;25.60;29.70;;;;;;6252130;28;20455;-82
2021/09/30 12:48:23;;;;;;;3.38;0.80;;;25.60;30.00;;;;;;6252382;28;20465;-84
2021/09/30 12:51:25;;;;;;;2.77;1.00;;;25.40;29.60;;;;;;6251865;28;20930;-83
2021/09/30 12:54:28;;;;;;;2.22;0.80;;;25.00;30.80;;;;;;6251886;28;20419;-83
2021/09/30 12:57:36;;;;;;;4.40;1.30;;;25.00;30.00;;;;;;6250468;28;20474;-82
2021/09/30 13:00:38;;;;;;;2.03;1.23;;;24.80;32.20;;;;;;6251497;28;20435;-83
2021/09/30 13:03:40;;;;;;;7.13;1.80;;;24.80;32.40;;;;;;6252349;28;20474;-83
2021/09/30 13:06:54;;;;;;;2.30;0.80;;;25.00;31.90;;;;;;6249770;28;20465;-82
2021/09/30 13:10:05;;;;;;;3.88;1.20;;;25.00;30.80;;;;;;6234171;28;20417;-82
2021/09/30 13:13:08;;;;;;;3.05;1.10;;;25.10;31.50;;;;;;6228755;28;20552;-84
2021/09/30 13:16:23;;;;;;;2.88;1.15;;;25.10;32.40;;;;;;6228538;28;20432;-83
2021/09/30 13:19:43;;;;;;;2.22;1.00;;;24.90;32.60;;;;;;6229772;28;20417;-82
2021/09/30 13:22:45;;;;;;;2.40;1.10;;;24.70;32.30;;;;;;6229653;28;20922;-82
2021/09/30 13:25:48;;;;;;;4.80;1.27;;;24.80;32.60;;;;;;6230448;28;20437;-82
2021/09/30 13:28:50;;;;;;;3.80;0.90;;;25.00;32.70;;;;;;6227867;28;20503;-82
2021/09/30 13:31:51;;;;;;;1.70;0.88;;;24.90;32.70;;;;;;6227618;28;20455;-82
2021/09/30 13:34:54;;;;;;;2.70;1.30;;;24.90;31.00;;;;;;6226904;28;20425;-82
2021/09/30 13:37:57;;;;;;;7.65;1.25;;;24.90;31.10;;;;;;6240892;28;20443;-82
2021/09/30 13:41:00;;;;;;;1.77;1.00;;;25.00;31.70;;;;;;6228923;28;20499;-82
2021/09/30 13:44:02;;;;;;;7.10;1.40;;;25.10;30.70;;;;;;6228038;28;20946;-82
2021/09/30 13:47:04;;;;;;;3.20;1.45;;;25.10;31.30;;;;;;6227365;28;20452;-82
2021/09/30 13:50:09;;;;;;;5.20;1.25;;;25.10;30.50;;;;;;6227041;28;20421;-82
2021/09/30 13:53:11;;;;;;;4.18;1.52;;;24.90;29.70;;;;;;6227389;28;20482;-82
2021/09/30 13:56:14;;;;;;;3.03;1.02;;;24.80;30.50;;;;;;6227971;28;20440;-82
2021/09/30 13:59:16;;;;;;;2.35;1.27;;;24.60;31.10;;;;;;6228105;28;20487;-82
2021/09/30 14:02:19;;;;;;;2.00;0.98;;;24.60;30.60;;;;;;6227804;28;20484;-82
2021/09/30 14:05:21;;;;;;;2.03;0.80;;;24.60;32.70;;;;;;6229482;28;20413;-82
2021/09/30 14:08:24;;;;;;;5.97;1.27;;;24.60;32.00;;;;;;6237629;28;20522;-82
2021/09/30 14:11:27;;;;;;;3.47;1.13;;;24.60;34.00;;;;;;6226730;28;20515;-82
2021/09/30 14:14:29;;;;;;;5.27;1.67;;;24.50;32.20;;;;;;6228124;28;20456;-82
2021/09/30 14:17:31;;;;;;;5.40;1.30;;;24.60;33.00;;;;;;6228959;28;20421;-82
2021/09/30 14:20:33;;;;;;;3.17;1.15;;;24.60;34.10;;;;;;6229747;28;20531;-82
2021/09/30 14:23:35;;;;;;;5.55;1.70;;;24.40;32.70;;;;;;6230057;28;20425;-83
2021/09/30 14:26:38;;;;;;;3.08;1.30;;;24.20;32.50;;;;;;6231744;28;20437;-82
2021/09/30 14:29:43;;;;;;;5.00;1.70;;;24.00;32.60;;;;;;6229541;28;20428;-82
2021/09/30 14:32:45;;;;;;;3.33;1.15;;;23.80;33.90;;;;;;6234729;28;20440;-82
2021/09/30 14:35:46;;;;;;;2.25;0.93;;;23.80;33.80;;;;;;6237817;28;20508;-80
2021/09/30 14:38:48;;;;;;;4.50;1.17;;;23.80;34.10;;;;;;6237568;28;20566;-80
2021/09/30 14:41:51;;;;;;;4.72;1.67;;;23.70;32.60;;;;;;6250587;28;20453;-81
2021/09/30 14:44:54;;;;;;;3.47;0.90;;;23.50;32.80;;;;;;6250533;28;20427;-80
2021/09/30 14:47:56;;;;;;;4.10;0.63;;;23.60;32.20;;;;;;6249155;28;20893;-81
2021/09/30 14:50:58;;;;;;;3.03;1.00;;;23.70;32.50;;;;;;6248937;28;20472;-80
2021/09/30 14:54:00;;;;;;;2.92;0.88;;;23.50;33.40;;;;;;6248527;28;20419;-80
2021/09/30 14:57:04;;;;;;;2.50;1.25;;;23.30;33.60;;;;;;6249668;28;20484;-81
2021/09/30 15:00:07;;;;;;;21.17;12.10;;;23.20;33.80;;;;;;6251388;28;20919;-80
2021/09/30 15:03:09;;;;;;;3.07;1.57;;;23.30;35.20;;;;;;6253354;28;21034;-80
2021/09/30 15:06:12;;;;;;;3.07;1.40;;;23.40;33.10;;;;;;6251963;28;20449;-80
2021/09/30 15:09:14;;;;;;;3.22;1.40;;;23.20;34.00;;;;;;6234907;28;20777;-80
2021/09/30 15:12:18;;;;;;;3.85;1.10;;;23.00;33.50;;;;;;6205991;28;20461;-79
2021/09/30 15:15:20;;;;;;;4.60;1.40;;;22.70;33.70;;;;;;6203708;28;20422;-80
2021/09/30 15:18:38;;;;;;;5.00;1.15;;;22.30;34.70;;;;;;6203853;28;20541;-80
2021/09/30 15:21:39;;;;;;;2.72;1.60;;;22.00;35.70;;;;;;6204436;28;20421;-79
2021/09/30 15:24:41;;;;;;;4.40;1.90;;;21.60;36.70;;;;;;6204247;28;20493;-80
2021/09/30 15:27:45;;;;;;;3.00;1.40;;;21.30;36.90;;;;;;6204360;28;20454;-80
2021/09/30 15:30:48;;;;;;;3.75;1.33;;;21.00;37.20;;;;;;6202921;28;21041;-80
2021/09/30 15:33:50;;;;;;;3.20;1.20;;;20.80;38.00;;;;;;6204111;28;20493;-80
2021/09/30 15:36:52;;;;;;;2.08;0.93;;;20.50;40.00;;;;;;6215626;28;20847;-80
2021/09/30 15:39:54;;;;;;;4.00;1.53;;;20.20;38.90;;;;;;6242467;28;20462;-78
2021/09/30 15:42:58;;;;;;;4.00;1.30;;;19.90;43.20;;;;;;6249629;28;20412;-78
2021/09/30 15:46:01;;;;;;;2.88;1.48;;;19.70;41.20;;;;;;6250801;28;20568;-79
2021/09/30 15:49:03;;;;;;;2.72;1.83;;;19.50;44.10;;;;;;6249438;28;20419;-78
2021/09/30 15:52:05;;;;;;;4.28;1.10;;;19.40;43.80;;;;;;6252500;28;20554;-78
2021/09/30 15:55:07;;;;;;;1.83;1.40;;;19.20;44.50;;;;;;6249509;28;20469;-78
2021/09/30 15:58:10;;;;;;;2.08;1.35;;;19.10;43.80;;;;;;6249772;28;20510;-78
2021/09/30 16:01:13;;;;;;;6.57;1.95;;;18.90;48.10;;;;;;6250748;28;20835;-79
2021/09/30 16:04:14;;;;;;;3.85;1.13;;;18.90;46.40;;;;;;6250866;28;20589;-78
2021/09/30 16:07:16;;;;;;;8.15;1.48;;;18.80;45.30;;;;;;6248528;28;20505;-79
2021/09/30 16:10:18;;;;;;;2.67;1.00;;;18.60;47.20;;;;;;6242470;28;20470;-79
2021/09/30 16:13:21;;;;;;;4.63;1.17;;;18.50;47.10;;;;;;6208416;28;20445;-79
2021/09/30 16:16:23;;;;;;;2.05;1.63;;;18.40;46.90;;;;;;6201730;28;20568;-80
2021/09/30 16:19:25;;;;;;;3.15;1.80;;;18.30;48.00;;;;;;6200823;28;20496;-79
2021/09/30 16:22:28;;;;;;;6.50;4.57;;;18.20;48.80;;;;;;6200956;28;20434;-79
2021/09/30 16:25:29;;;;;;;4.10;2.10;;;18.10;52.00;;;;;;6200872;28;20556;-79
2021/09/30 16:28:33;;;;;;;4.35;1.20;;;17.90;55.20;;;;;;6201676;28;20524;-79
2021/09/30 16:31:36;;;;;;;3.25;1.42;;;17.60;54.40;;;;;;6199861;28;20495;-77
2021/09/30 16:34:38;;;;;;;3.35;1.02;;;17.50;55.60;;;;;;6200811;28;20426;-79
2021/09/30 16:37:40;;;;;;;4.33;1.10;;;17.30;55.90;;;;;;6221624;28;20513;-79
2021/09/30 16:40:42;;;;;;;4.27;1.60;;;17.00;58.00;;;;;;6245512;28;20446;-78
2021/09/30 16:43:45;;;;;;;9.00;3.13;;;16.80;60.90;;;;;;6249872;28;20430;-78
2021/09/30 16:46:47;;;;;;;5.03;1.50;;;16.70;62.10;;;;;;6249269;28;20465;-78
2021/09/30 16:49:49;;;;;;;4.75;1.73;;;16.50;62.00;;;;;;6249431;28;20766;-78
2021/09/30 16:52:51;;;;;;;3.40;1.50;;;16.50;63.30;;;;;;6249099;28;20470;-79
2021/09/30 16:55:53;;;;;;;5.18;1.00;;;16.30;64.20;;;;;;6250391;28;20446;-78
2021/09/30 16:58:57;;;;;;;4.15;1.33;;;16.10;65.10;;;;;;6249337;28;20780;-79
2021/09/30 17:01:59;;;;;;;2.90;1.20;;;15.90;66.30;;;;;;6249014;28;20449;-78
2021/09/30 17:05:00;;;;;;;4.73;1.60;;;15.70;66.90;;;;;;6250996;28;20470;-81
2021/09/30 17:08:02;;;;;;;3.60;1.80;;;15.60;67.80;;;;;;6244951;28;20464;-81
2021/09/30 17:11:05;;;;;;;4.80;1.97;;;15.30;68.50;;;;;;6247095;28;21159;-81
2021/09/30 17:14:08;;;;;;;2.38;1.50;;;15.20;69.60;;;;;;6222618;28;20933;-79
2021/09/30 17:17:10;;;;;;;5.18;1.25;;;15.00;70.30;;;;;;6224905;28;20524;-80
2021/09/30 17:20:13;;;;;;;3.53;1.25;;;14.80;70.80;;;;;;6226511;28;20914;-81
2021/09/30 17:23:15;;;;;;;3.37;1.27;;;14.60;71.10;;;;;;6226456;28;20436;-81
2021/09/30 17:26:17;;;;;;;3.60;1.70;;;14.50;71.30;;;;;;6226221;28;20887;-80
2021/09/30 17:29:23;;;;;;;2.35;1.27;;;14.40;71.80;;;;;;6220142;28;20420;-82
2021/09/30 17:32:25;;;;;;;4.82;1.90;;;14.30;72.10;;;;;;6227900;28;20439;-81
2021/09/30 17:35:26;;;;;;;3.47;1.40;;;14.10;73.00;;;;;;6226659;28;20428;-80
2021/09/30 17:38:29;;;;;;;4.43;1.33;;;13.90;73.10;;;;;;6235940;28;20496;-82
2021/09/30 17:41:30;;;;;;;5.55;2.10;;;13.80;73.50;;;;;;6253284;28;20502;-80
2021/09/30 17:44:34;;;;;;;2.17;1.27;;;13.70;73.80;;;;;;6252398;28;20564;-81
2021/09/30 17:47:36;;;;;;;2.58;1.65;;;13.60;74.10;;;;;;6252721;28;20426;-80
2021/09/30 17:50:39;;;;;;;1.13;0.80;;;13.50;74.00;;;;;;6250665;28;20445;-80
2021/09/30 17:53:41;;;;;;;2.13;1.30;;;13.50;73.80;;;;;;6250660;28;20973;-80
2021/09/30 17:56:43;;;;;;;3.63;1.20;;;13.40;74.10;;;;;;6250983;28;20435;-80
2021/09/30 17:59:46;;;;;;;3.80;1.00;;;13.30;74.80;;;;;;6251317;28;20458;-80
2021/09/30 18:02:48;;;;;;;6.72;1.20;;;13.30;74.20;;;;;;6251527;28;20414;-80
2021/09/30 18:05:51;;;;;;;1.70;1.08;;;13.30;74.60;;;;;;6250669;28;20498;-81
2021/09/30 18:08:53;;;;;;;1.05;0.95;;;13.10;74.90;;;;;;6241178;28;20508;-80
2021/09/30 18:11:55;;;;;;;4.50;1.08;;;13.00;74.90;;;;;;6253739;28;20427;-81
2021/09/30 18:14:58;;;;;;;6.70;1.30;;;12.90;75.00;;;;;;6218079;28;20496;-80
2021/09/30 18:18:00;;;;;;;3.55;1.55;;;12.80;75.20;;;;;;6226116;28;20436;-80